Time;durP1;ratioP1;P1;durP2;ratioP2;P2;SDS_P1;SDS_P2;PMS_P1;PMS_P2;Temp;Humidity;BMP_temperature;BMP_pressure;BME280_temperature;BME280_humidity;BME280_pressure;Samples;Min_cycle;Max_cycle;Signal;HPM_P1;HPM_P2
2022/07/22 00:01:56;;;;;;;7.00;5.00;;;;;;;19.36;71.85;99125.73;1689913;85;23113;-41
2022/07/22 00:04:23;;;;;;;6.62;4.62;;;;;;;19.32;71.91;99131.09;1683951;84;21550;-41
2022/07/22 00:06:52;;;;;;;7.05;5.10;;;;;;;19.29;71.96;99138.22;1689921;85;20985;-40
2022/07/22 00:09:19;;;;;;;8.68;5.28;;;;;;;19.28;72.03;99140.80;1689830;84;21083;-41
2022/07/22 00:11:46;;;;;;;6.25;5.08;;;;;;;19.27;71.99;99135.11;1689958;85;21002;-40
2022/07/22 00:14:15;;;;;;;8.50;5.17;;;;;;;19.25;72.01;99134.78;1690122;84;21000;-41
2022/07/22 00:16:42;;;;;;;5.90;5.30;;;;;;;19.24;72.05;99133.22;1689917;85;21518;-41
2022/07/22 00:19:08;;;;;;;5.92;5.30;;;;;;;19.19;72.21;99139.20;1689997;84;20997;-41
2022/07/22 00:21:37;;;;;;;6.97;4.92;;;;;;;19.18;72.25;99135.50;1689704;85;21045;-41
2022/07/22 00:24:04;;;;;;;5.85;4.97;;;;;;;19.14;72.38;99134.20;1689760;85;21013;-41
2022/07/22 00:26:32;;;;;;;6.80;5.33;;;;;;;19.09;72.47;99139.59;1689699;85;21128;-41
2022/07/22 00:28:59;;;;;;;6.35;5.33;;;;;;;19.07;72.49;99142.59;1689699;84;21601;-40
2022/07/22 00:31:28;;;;;;;5.80;5.05;;;;;;;19.03;72.51;99141.86;1689824;85;20953;-41
2022/07/22 00:33:55;;;;;;;6.95;4.87;;;;;;;18.99;72.56;99138.41;1689870;85;20973;-41
2022/07/22 00:36:22;;;;;;;6.70;5.03;;;;;;;18.96;72.66;99146.13;1689802;84;21535;-40
2022/07/22 00:38:49;;;;;;;5.85;5.08;;;;;;;18.93;72.70;99138.12;1689811;85;21223;-41
2022/07/22 00:41:17;;;;;;;9.73;5.65;;;;;;;18.93;72.63;99140.09;1689796;85;21045;-40
2022/07/22 00:44:07;;;;;;;6.33;5.08;;;;;;;18.92;72.64;99141.31;1689047;85;21077;-41
2022/07/22 00:46:36;;;;;;;6.97;4.95;;;;;;;18.91;72.66;99146.62;1684897;85;21073;-41
2022/07/22 00:49:04;;;;;;;5.83;4.90;;;;;;;18.87;72.53;99142.57;1684850;85;21025;-40
2022/07/22 00:51:32;;;;;;;;;;;;;;;18.85;72.59;99153.19;1687472;85;21488;-40
2022/07/22 00:54:00;;;;;;;6.33;5.70;;;;;;;18.83;72.66;99145.95;1685079;85;20137;-41
2022/07/22 00:56:27;;;;;;;6.47;5.53;;;;;;;18.73;72.98;99141.45;1684927;85;21585;-41
2022/07/22 00:58:57;;;;;;;6.12;5.20;;;;;;;18.75;72.98;99143.76;1685051;85;20950;-41
2022/07/22 01:01:24;;;;;;;6.10;5.40;;;;;;;18.78;72.93;99147.06;1685400;85;21069;-41
2022/07/22 01:03:52;;;;;;;7.50;5.17;;;;;;;18.79;72.85;99149.36;1679230;85;21219;-41
2022/07/22 01:06:19;;;;;;;10.98;5.60;;;;;;;18.79;72.63;99137.59;1684798;85;20981;-41
2022/07/22 01:08:48;;;;;;;8.88;5.35;;;;;;;18.81;72.50;99146.20;1684583;84;21538;-40
2022/07/22 01:11:19;;;;;;;8.15;5.20;;;;;;;18.81;72.36;99151.70;1684886;85;21029;-40
2022/07/22 01:13:47;;;;;;;6.80;5.20;;;;;;;18.78;72.17;99149.21;1684748;84;20999;-41
2022/07/22 01:16:16;;;;;;;6.60;5.15;;;;;;;18.73;72.24;99140.08;1685073;83;21192;-40
2022/07/22 01:18:43;;;;;;;7.45;5.28;;;;;;;18.70;72.29;99148.36;1685108;83;20981;-40
2022/07/22 01:21:11;;;;;;;6.75;5.47;;;;;;;18.70;72.26;99156.59;1684833;85;20950;-40
2022/07/22 01:23:38;;;;;;;7.10;5.67;;;;;;;18.69;72.15;99149.58;1684781;83;21537;-41
2022/07/22 01:26:06;;;;;;;7.20;5.40;;;;;;;18.69;72.09;99163.30;1684862;83;21069;-41
2022/07/22 01:28:34;;;;;;;8.83;5.60;;;;;;;18.70;71.94;99160.12;1684721;83;21239;-40
2022/07/22 01:31:02;;;;;;;6.67;5.47;;;;;;;18.68;71.86;99165.27;1684740;85;21459;-41
2022/07/22 01:33:29;;;;;;;9.80;5.40;;;;;;;18.66;71.77;99165.68;1684816;83;20984;-41
2022/07/22 01:35:57;;;;;;;6.55;5.33;;;;;;;18.64;71.74;99170.80;1684927;85;21021;-41
2022/07/22 01:38:24;;;;;;;11.08;6.08;;;;;;;18.61;71.77;99173.61;1684816;83;21593;-40
2022/07/22 01:40:52;;;;;;;7.60;5.45;;;;;;;18.57;71.83;99170.94;1685032;85;21219;-41
2022/07/22 01:45:17;;;;;;;8.33;5.60;;;;;;;18.60;71.83;99161.85;1774756;79;22725;-40
2022/07/22 01:47:44;;;;;;;8.28;5.83;;;;;;;18.50;72.01;99171.01;1746686;82;21030;-41
2022/07/22 01:50:12;;;;;;;7.37;5.58;;;;;;;18.48;72.05;99174.78;1746722;82;21125;-40
2022/07/22 01:52:39;;;;;;;7.62;5.80;;;;;;;18.48;72.07;99174.78;1746520;82;20963;-40
2022/07/22 01:55:08;;;;;;;8.45;5.90;;;;;;;18.46;72.05;99175.78;1746653;82;21539;-41
2022/07/22 01:57:36;;;;;;;6.87;5.78;;;;;;;18.47;72.05;99186.17;1717030;82;21803;-40
2022/07/22 02:00:07;;;;;;;;;;;;;;;18.47;71.91;99182.05;1748318;82;20975;-40
2022/07/22 02:02:38;;;;;;;10.08;5.83;;;;;;;18.47;71.81;99184.80;1745247;82;21148;-41
2022/07/22 02:05:06;;;;;;;8.70;5.80;;;;;;;18.33;72.11;99189.92;1717094;82;21022;-41
2022/07/22 02:07:33;;;;;;;8.63;6.20;;;;;;;18.31;72.23;99188.17;1760834;80;20937;-41
2022/07/22 02:10:00;;;;;;;7.80;5.90;;;;;;;18.29;72.37;99191.16;1788340;80;21594;-40
2022/07/22 02:12:30;;;;;;;8.88;6.60;;;;;;;18.29;72.45;99187.83;1788236;80;20972;-40
2022/07/22 02:14:57;;;;;;;8.75;6.25;;;;;;;18.28;72.52;99197.25;1788300;80;21107;-41
2022/07/22 02:17:25;;;;;;;8.73;6.05;;;;;;;18.27;72.65;99187.45;1788217;80;21513;-41
2022/07/22 02:19:53;;;;;;;7.60;5.87;;;;;;;18.25;72.61;99192.56;1788169;80;21597;-40
2022/07/22 02:22:20;;;;;;;8.00;6.05;;;;;;;18.23;72.68;99195.75;1788251;80;21013;-40
2022/07/22 02:24:48;;;;;;;9.70;5.95;;;;;;;18.20;72.73;99191.69;1788191;80;21088;-41
2022/07/22 02:27:15;;;;;;;7.55;5.95;;;;;;;18.16;72.89;99193.09;1788391;80;21210;-41
2022/07/22 02:29:44;;;;;;;8.65;6.17;;;;;;;18.16;72.94;99193.69;1788406;80;20894;-40
2022/07/22 02:32:11;;;;;;;9.53;6.17;;;;;;;18.15;72.88;99183.92;1788767;80;21026;-41
2022/07/22 02:34:38;;;;;;;9.20;6.30;;;;;;;18.14;72.94;99195.49;1788323;80;21473;-40
2022/07/22 02:37:07;;;;;;;8.40;6.17;;;;;;;18.15;72.93;99189.41;1788343;80;21083;-40
2022/07/22 02:39:34;;;;;;;9.00;6.30;;;;;;;18.15;72.96;99197.64;1757892;80;21276;-41
2022/07/22 02:42:01;;;;;;;8.83;6.78;;;;;;;18.16;73.04;99205.44;1788286;80;21493;-41
2022/07/22 02:44:29;;;;;;;7.45;6.35;;;;;;;18.17;73.08;99212.48;1785427;80;20992;-41
2022/07/22 02:46:57;;;;;;;13.48;6.90;;;;;;;18.17;73.23;99211.70;1782990;80;21040;-41
2022/07/22 02:49:26;;;;;;;8.60;6.62;;;;;;;18.18;73.36;99206.41;1782542;80;21052;-40
2022/07/22 02:51:55;;;;;;;10.35;6.70;;;;;;;18.19;73.50;99213.45;1783083;80;22080;-41
2022/07/22 02:54:22;;;;;;;7.45;6.45;;;;;;;18.20;73.62;99205.41;1782901;80;21145;-40
2022/07/22 02:56:49;;;;;;;8.48;6.55;;;;;;;18.22;73.72;99203.02;1782415;80;21008;-41
2022/07/22 02:59:18;;;;;;;8.63;6.80;;;;;;;18.23;73.70;99214.17;1782462;80;20898;-41
2022/07/22 03:01:45;;;;;;;9.35;7.40;;;;;;;18.21;73.97;99204.20;1782299;80;21502;-41
2022/07/22 03:04:13;;;;;;;10.63;7.90;;;;;;;18.20;74.30;99208.91;1782302;80;21228;-41
2022/07/22 03:06:40;;;;;;;8.80;7.35;;;;;;;18.21;74.55;99207.72;1782432;80;20918;-40
2022/07/22 03:09:12;;;;;;;10.98;7.67;;;;;;;18.21;74.73;99211.05;1780955;80;21025;-40
2022/07/22 03:11:44;;;;;;;11.20;7.47;;;;;;;18.20;74.89;99211.65;1782416;80;21550;-41
2022/07/22 03:14:11;;;;;;;12.03;7.60;;;;;;;18.22;75.14;99212.61;1782748;80;21029;-41
2022/07/22 03:16:38;;;;;;;9.98;7.62;;;;;;;18.26;75.31;99207.84;1782563;80;21922;-41
2022/07/22 03:19:06;;;;;;;10.53;7.62;;;;;;;18.30;75.29;99215.43;1782633;80;20965;-40
2022/07/22 03:21:34;;;;;;;10.28;7.22;;;;;;;18.32;75.32;99211.69;1782687;80;20988;-40
2022/07/22 03:24:01;;;;;;;11.73;8.18;;;;;;;18.34;75.42;99214.80;1782624;80;20922;-41
2022/07/22 03:26:30;;;;;;;10.13;7.17;;;;;;;18.35;75.50;99210.84;1782679;80;20996;-41
2022/07/22 03:28:57;;;;;;;11.05;7.53;;;;;;;18.39;75.72;99218.45;1782625;80;21191;-41
2022/07/22 03:31:26;;;;;;;9.13;7.53;;;;;;;18.46;75.67;99218.92;1782351;80;21000;-41
2022/07/22 03:33:53;;;;;;;9.08;7.72;;;;;;;18.47;75.74;99221.27;1782335;80;20999;-41
2022/07/22 03:36:21;;;;;;;11.88;8.00;;;;;;;18.49;75.64;99222.98;1782410;80;21005;-41
2022/07/22 03:38:51;;;;;;;8.03;7.08;;;;;;;18.51;75.60;99217.09;1782253;80;20925;-40
2022/07/22 03:41:18;;;;;;;8.63;7.17;;;;;;;18.52;75.65;99222.77;1782294;80;23222;-41
2022/07/22 03:43:46;;;;;;;10.13;7.67;;;;;;;18.56;75.61;99221.55;1781272;80;21630;-41
2022/07/22 03:46:14;;;;;;;10.38;7.62;;;;;;;18.58;75.33;99216.42;1774110;80;20953;-40
2022/07/22 03:48:41;;;;;;;8.73;7.58;;;;;;;18.61;75.27;99214.20;1774149;80;21256;-40
2022/07/22 03:51:11;;;;;;;11.73;7.78;;;;;;;18.64;75.14;99211.98;1774125;80;21069;-41
2022/07/22 03:53:39;;;;;;;10.03;7.33;;;;;;;18.68;75.12;99222.16;1774416;80;21234;-41
2022/07/22 03:56:07;;;;;;;8.70;7.10;;;;;;;18.70;75.09;99221.13;1752728;80;21515;-41
2022/07/22 03:58:36;;;;;;;9.15;6.80;;;;;;;18.72;75.01;99218.75;1774215;80;20953;-41
2022/07/22 04:01:03;;;;;;;10.75;7.25;;;;;;;18.77;74.90;99225.14;1774080;80;21382;-40
2022/07/22 04:03:30;;;;;;;7.92;6.55;;;;;;;18.81;74.84;99227.23;1774024;80;21122;-40
2022/07/22 04:06:03;;;;;;;10.70;6.47;;;;;;;18.83;74.58;99229.73;1767468;80;21288;-40
2022/07/22 04:08:35;;;;;;;8.98;6.60;;;;;;;18.84;74.52;99225.02;1772368;80;20953;-40
2022/07/22 04:11:02;;;;;;;11.97;7.08;;;;;;;18.84;74.43;99224.42;1774270;80;20973;-40
2022/07/22 04:13:30;;;;;;;7.30;6.05;;;;;;;18.82;74.25;99224.08;1774250;80;21363;-41
2022/07/22 04:16:00;;;;;;;8.18;6.58;;;;;;;18.84;74.58;99230.51;1774351;80;20972;-40
2022/07/22 04:18:31;;;;;;;7.53;6.72;;;;;;;18.89;74.87;99228.66;1774090;80;20973;-40
2022/07/22 04:21:00;;;;;;;8.53;6.90;;;;;;;18.96;74.72;99232.67;1774375;80;21555;-41
2022/07/22 04:23:29;;;;;;;9.03;6.60;;;;;;;19.00;74.57;99236.13;1773878;80;21029;-41
2022/07/22 04:25:58;;;;;;;9.93;6.75;;;;;;;19.01;74.32;99240.44;1772549;80;21016;-40
2022/07/22 04:28:26;;;;;;;10.50;6.75;;;;;;;19.01;74.35;99247.30;1774223;80;21002;-41
2022/07/22 04:30:53;;;;;;;9.85;7.60;;;;;;;19.02;74.32;99246.12;1774121;80;21141;-40
2022/07/22 04:33:22;;;;;;;7.67;6.83;;;;;;;19.05;74.07;99248.02;1774267;80;21086;-41
2022/07/22 04:35:50;;;;;;;8.55;7.25;;;;;;;19.06;73.89;99249.57;1774364;80;21513;-40
2022/07/22 04:38:18;;;;;;;9.35;7.20;;;;;;;19.10;73.78;99250.28;1774406;80;20937;-41
2022/07/22 04:40:47;;;;;;;8.80;7.20;;;;;;;19.13;73.79;99253.55;1772946;80;21080;-40
2022/07/22 04:43:16;;;;;;;8.10;6.42;;;;;;;19.15;73.71;99249.02;1774156;80;21229;-41
2022/07/22 04:45:43;;;;;;;9.05;6.65;;;;;;;19.17;73.80;99250.14;1773881;80;21609;-41
2022/07/22 04:48:10;;;;;;;9.38;7.37;;;;;;;19.20;73.85;99243.83;1774272;80;20934;-41
2022/07/22 04:50:38;;;;;;;10.32;6.72;;;;;;;19.25;73.88;99241.97;1774081;80;21021;-41
2022/07/22 04:53:05;;;;;;;7.70;6.67;;;;;;;19.29;73.86;99246.02;1774280;80;21002;-40
2022/07/22 04:55:34;;;;;;;7.40;6.10;;;;;;;19.32;73.72;99239.08;1773996;80;23123;-41
2022/07/22 04:58:02;;;;;;;9.73;6.80;;;;;;;19.37;73.45;99246.84;1774323;80;21512;-41
2022/07/22 05:00:30;;;;;;;9.23;6.53;;;;;;;19.40;73.46;99245.23;1774260;80;21013;-40
2022/07/22 05:02:57;;;;;;;10.50;6.55;;;;;;;19.44;73.58;99241.25;1774124;80;20984;-41
2022/07/22 05:05:25;;;;;;;7.10;6.40;;;;;;;19.49;73.61;99242.14;1774413;80;21029;-40
2022/07/22 05:07:53;;;;;;;8.18;6.87;;;;;;;19.56;73.62;99244.58;1774333;80;21350;-41
2022/07/22 05:10:21;;;;;;;9.38;6.90;;;;;;;19.63;73.55;99245.20;1774351;80;20938;-41
2022/07/22 05:12:49;;;;;;;9.35;6.85;;;;;;;19.68;73.05;99249.44;1774218;80;21009;-40
2022/07/22 05:15:17;;;;;;;9.20;7.30;;;;;;;19.70;73.02;99249.80;1774505;80;21801;-41
2022/07/22 05:17:45;;;;;;;9.28;7.12;;;;;;;19.73;72.68;99248.34;1774123;80;21080;-41
2022/07/22 05:20:17;;;;;;;9.93;6.62;;;;;;;19.79;72.60;99256.89;1773605;80;21178;-41
2022/07/22 05:22:46;;;;;;;8.65;6.40;;;;;;;19.84;72.22;99255.80;1774187;80;20906;-41
2022/07/22 05:25:15;;;;;;;9.08;6.75;;;;;;;19.85;71.92;99255.17;1774248;80;20961;-41
2022/07/22 05:27:53;;;;;;;7.85;6.22;;;;;;;19.89;72.13;99249.80;1774183;80;21053;-41
2022/07/22 05:30:22;;;;;;;8.53;6.45;;;;;;;19.98;71.90;99249.22;1774446;80;21025;-41
2022/07/22 05:32:49;;;;;;;8.18;6.20;;;;;;;20.05;71.58;99251.80;1774124;80;21278;-41
2022/07/22 05:35:18;;;;;;;7.15;5.90;;;;;;;20.13;71.67;99253.22;1746970;80;21567;-41
2022/07/22 05:37:46;;;;;;;9.03;6.00;;;;;;;20.22;71.37;99252.04;1774213;80;21269;-41
2022/07/22 05:40:13;;;;;;;10.90;5.78;;;;;;;20.14;70.66;99229.23;1774404;80;21056;-41
2022/07/22 05:42:41;;;;;;;9.23;5.35;;;;;;;20.31;70.36;99258.36;1774242;80;21502;-41
2022/07/22 05:45:10;;;;;;;7.90;5.33;;;;;;;20.34;70.30;99252.77;1774225;80;21554;-41
2022/07/22 05:47:38;;;;;;;7.40;5.30;;;;;;;20.42;69.67;99259.50;1774197;80;21004;-41
2022/07/22 05:50:06;;;;;;;6.75;4.92;;;;;;;20.50;69.54;99267.77;1774571;80;21562;-41
2022/07/22 05:52:36;;;;;;;6.60;5.40;;;;;;;20.58;69.61;99271.91;1773865;80;21030;-41
2022/07/22 05:55:05;;;;;;;5.10;4.60;;;;;;;20.65;68.81;99263.48;1774441;80;21087;-41
2022/07/22 05:57:33;;;;;;;6.03;5.40;;;;;;;20.69;68.38;99272.44;1774635;80;21189;-41
2022/07/22 06:00:00;;;;;;;7.22;5.47;;;;;;;20.74;68.48;99262.28;1774512;80;20973;-41
2022/07/22 06:02:28;;;;;;;8.20;5.08;;;;;;;20.78;69.16;99267.10;1774249;80;21001;-41
2022/07/22 06:04:55;;;;;;;6.67;3.90;;;;;;;20.86;68.16;99267.72;1773973;80;20964;-41
2022/07/22 06:07:25;;;;;;;6.20;4.40;;;;;;;20.96;67.35;99270.82;1774190;80;21053;-41
2022/07/22 06:09:54;;;;;;;4.55;4.05;;;;;;;21.07;66.80;99263.05;1773896;80;21500;-41
2022/07/22 06:12:21;;;;;;;4.87;4.15;;;;;;;21.17;66.56;99262.03;1774040;80;20973;-41
2022/07/22 06:14:48;;;;;;;6.30;4.40;;;;;;;21.28;65.83;99270.81;1774161;80;21069;-41
2022/07/22 06:17:15;;;;;;;6.20;4.40;;;;;;;21.37;65.90;99269.58;1774007;80;20961;-41
2022/07/22 06:19:44;;;;;;;5.22;3.55;;;;;;;21.45;65.56;99264.64;1774258;80;20969;-41
2022/07/22 06:22:11;;;;;;;3.80;3.35;;;;;;;21.53;64.55;99266.02;1774171;80;21217;-41
2022/07/22 06:24:40;;;;;;;5.25;4.08;;;;;;;21.58;64.40;99269.63;1773936;80;20969;-41
2022/07/22 06:27:08;;;;;;;4.30;3.15;;;;;;;21.64;64.26;99261.73;1766545;80;21547;-45
2022/07/22 06:29:35;;;;;;;4.85;3.98;;;;;;;21.75;63.70;99263.44;1761027;80;21057;-45
2022/07/22 06:32:04;;;;;;;4.78;3.27;;;;;;;21.86;63.01;99263.31;1756898;80;20929;-46
2022/07/22 06:34:31;;;;;;;3.85;3.40;;;;;;;21.97;62.60;99262.44;1773300;80;21101;-46
2022/07/22 06:37:05;;;;;;;3.70;3.00;;;;;;;22.06;62.17;99262.56;1751227;80;21514;-46
2022/07/22 06:39:32;;;;;;;4.47;3.00;;;;;;;22.13;61.08;99260.78;1744800;80;20997;-46
2022/07/22 06:42:18;;;;;;;6.03;3.08;;;;;;;22.21;60.42;99265.68;1752716;80;20985;-46
2022/07/22 06:45:06;;;;;;;6.08;3.20;;;;;;;22.24;59.85;99268.16;1736448;81;21109;-46
2022/07/22 06:47:40;;;;;;;3.90;3.37;;;;;;;22.23;59.94;99269.36;1749241;81;20992;-46
2022/07/22 06:50:10;;;;;;;4.50;3.05;;;;;;;22.24;60.04;99271.69;1750749;80;20972;-46
2022/07/22 06:52:40;;;;;;;6.03;3.67;;;;;;;22.27;60.06;99271.44;1773060;80;21029;-46
2022/07/22 06:55:09;;;;;;;4.97;3.40;;;;;;;22.31;59.74;99270.72;1765427;80;21042;-46
2022/07/22 06:57:38;;;;;;;4.83;3.00;;;;;;;22.40;60.41;99268.07;1750627;80;21058;-46
2022/07/22 07:00:09;;;;;;;5.58;3.10;;;;;;;22.49;59.77;99270.94;1774109;80;21130;-46
2022/07/22 07:02:38;;;;;;;3.05;2.75;;;;;;;22.60;59.91;99273.38;1772220;80;20969;-46
2022/07/22 07:05:07;;;;;;;2.75;2.52;;;;;;;22.71;57.33;99277.97;1771452;80;21080;-46
2022/07/22 07:07:34;;;;;;;3.80;2.62;;;;;;;22.74;56.96;99277.87;1773980;80;20997;-45
2022/07/22 07:10:02;;;;;;;4.70;2.52;;;;;;;22.80;57.08;99281.61;1773899;80;21570;-46
2022/07/22 07:12:35;;;;;;;4.62;2.40;;;;;;;22.88;57.28;99277.42;1773209;80;21803;-46
2022/07/22 07:15:08;;;;;;;2.35;2.15;;;;;;;23.00;55.24;99278.60;1761970;80;21111;-45
2022/07/22 07:17:35;;;;;;;3.02;2.50;;;;;;;23.06;55.55;99287.11;1767187;80;21570;-42
2022/07/22 07:20:07;;;;;;;5.08;2.17;;;;;;;23.06;55.37;99281.58;1774170;80;22170;-42
2022/07/22 07:22:35;;;;;;;2.10;1.90;;;;;;;23.04;54.89;99280.66;1773684;80;21036;-42
2022/07/22 07:25:05;;;;;;;5.15;2.35;;;;;;;23.09;55.29;99275.18;1772958;80;23153;-42
2022/07/22 07:27:57;;;;;;;2.60;2.02;;;;;;;23.15;55.16;99287.20;1743498;82;20969;-42
2022/07/22 07:30:26;;;;;;;3.70;2.10;;;;;;;23.18;54.06;99288.48;1688716;81;21116;-46
2022/07/22 07:32:53;;;;;;;3.83;2.33;;;;;;;23.23;52.88;99285.77;1761188;80;21080;-45
2022/07/22 07:35:20;;;;;;;2.37;2.17;;;;;;;23.32;53.49;99285.84;1748934;80;21043;-45
2022/07/22 07:37:48;;;;;;;3.72;2.30;;;;;;;23.44;53.80;99288.39;1774258;80;21213;-45
2022/07/22 07:40:15;;;;;;;3.27;2.50;;;;;;;23.54;53.14;99285.29;1753688;80;20977;-45
2022/07/22 07:42:43;;;;;;;2.20;2.00;;;;;;;23.65;52.96;99289.84;1741862;82;21538;-45
2022/07/22 07:45:10;;;;;;;2.80;1.75;;;;;;;23.70;52.40;99285.13;1742003;82;21562;-45
2022/07/22 07:47:37;;;;;;;3.40;2.20;;;;;;;23.75;52.33;99278.23;1750351;80;21563;-45
2022/07/22 07:50:07;;;;;;;3.52;2.20;;;;;;;23.82;52.41;99287.65;1751084;80;21224;-42
2022/07/22 07:52:41;;;;;;;;;;;;;;;23.88;52.85;99281.70;1760027;80;20987;-42
2022/07/22 07:55:09;;;;;;;3.20;1.98;;;;;;;23.97;51.64;99276.83;1747373;80;20483;-42
2022/07/22 07:57:36;;;;;;;2.92;2.10;;;;;;;23.94;51.22;99291.59;1738155;80;21625;-42
2022/07/22 08:00:08;;;;;;;2.35;1.80;;;;;;;23.99;49.88;99284.86;1766193;80;21088;-42
2022/07/22 08:02:37;;;;;;;1.98;1.77;;;;;;;24.05;50.55;99292.75;1773778;80;21150;-42
2022/07/22 08:05:07;;;;;;;4.85;2.00;;;;;;;24.15;50.35;99281.12;1773912;80;21069;-41
2022/07/22 08:07:34;;;;;;;2.40;2.20;;;;;;;24.27;50.89;99283.05;1774517;80;21000;-42
2022/07/22 08:10:04;;;;;;;3.22;2.20;;;;;;;24.39;50.04;99282.81;1774027;80;21537;-42
2022/07/22 08:12:51;;;;;;;3.37;2.10;;;;;;;24.52;49.96;99283.48;1752414;80;21511;-45
2022/07/22 08:15:19;;;;;;;2.50;2.30;;;;;;;24.65;49.13;99289.07;1737249;82;21614;-44
2022/07/22 08:17:49;;;;;;;2.55;2.10;;;;;;;24.77;48.26;99288.81;1736902;82;21299;-44
2022/07/22 08:20:17;;;;;;;3.70;2.25;;;;;;;24.87;48.46;99288.26;1764720;80;21700;-44
2022/07/22 08:22:44;;;;;;;2.52;2.20;;;;;;;24.97;48.07;99287.05;1774125;80;20922;-44
2022/07/22 08:25:12;;;;;;;2.50;2.30;;;;;;;24.97;48.32;99287.05;1774414;80;21025;-45
2022/07/22 08:27:40;;;;;;;3.20;2.05;;;;;;;25.01;48.12;99291.84;1764334;80;21503;-44
2022/07/22 08:30:09;;;;;;;3.98;2.30;;;;;;;25.08;47.99;99295.69;1737315;82;21079;-45
2022/07/22 08:32:35;;;;;;;4.62;2.25;;;;;;;25.16;47.65;99285.86;1737507;82;21036;-44
2022/07/22 08:35:05;;;;;;;3.90;2.40;;;;;;;25.31;47.04;99287.42;1737377;82;21045;-45
2022/07/22 08:37:33;;;;;;;3.72;2.80;;;;;;;25.42;47.56;99288.50;1761660;80;21015;-44
2022/07/22 08:40:01;;;;;;;2.83;2.30;;;;;;;25.51;46.20;99284.98;1773685;80;21219;-45
2022/07/22 08:42:29;;;;;;;3.33;2.20;;;;;;;25.52;44.20;99296.21;1774270;80;21638;-44
2022/07/22 08:44:56;;;;;;;4.00;2.02;;;;;;;25.44;43.68;99295.76;1726216;80;21047;-44
2022/07/22 08:47:24;;;;;;;3.00;2.30;;;;;;;25.35;44.08;99292.98;1773797;80;21072;-44
2022/07/22 08:50:09;;;;;;;2.42;2.05;;;;;;;25.37;45.22;99293.88;1774066;80;20961;-44
2022/07/22 08:52:41;;;;;;;3.17;2.17;;;;;;;25.47;44.42;99290.66;1767029;80;21230;-44
2022/07/22 08:55:10;;;;;;;3.20;2.17;;;;;;;25.57;43.23;99298.41;1773895;80;20986;-44
2022/07/22 08:57:47;;;;;;;2.67;1.98;;;;;;;25.69;43.44;99293.94;1773014;80;20999;-44
2022/07/22 09:00:20;;;;;;;3.20;2.10;;;;;;;25.89;43.65;99290.08;1743302;82;20945;-45
2022/07/22 09:02:47;;;;;;;3.17;2.17;;;;;;;26.12;43.52;99288.02;1747709;80;21053;-44
2022/07/22 09:05:17;;;;;;;4.35;2.00;;;;;;;26.35;43.09;99285.97;1762935;80;21958;-42
2022/07/22 09:07:45;;;;;;;3.00;2.30;;;;;;;26.52;43.31;99289.17;1743472;82;21063;-45
2022/07/22 09:10:19;;;;;;;2.72;2.20;;;;;;;26.68;43.52;99285.22;1739976;82;20943;-45
2022/07/22 09:13:07;;;;;;;2.70;2.20;;;;;;;26.78;43.31;99290.89;1741212;82;21528;-45
2022/07/22 09:15:42;;;;;;;2.33;2.10;;;;;;;26.90;41.86;99291.34;1732449;82;21078;-45
2022/07/22 09:18:33;;;;;;;2.95;2.22;;;;;;;26.96;41.75;99290.08;1640195;86;21231;-45
2022/07/22 09:21:02;;;;;;;5.78;2.30;;;;;;;26.97;41.59;99294.38;1634639;86;21069;-45
2022/07/22 09:23:41;;;;;;;3.45;2.33;;;;;;;26.85;40.58;99293.34;1688241;82;21004;-45
2022/07/22 09:26:11;;;;;;;3.70;2.22;;;;;;;26.62;40.74;99303.81;1742183;82;21110;-45
2022/07/22 09:28:39;;;;;;;5.17;2.17;;;;;;;26.47;41.39;99287.64;1713494;82;21081;-45
2022/07/22 09:31:32;;;;;;;4.15;1.98;;;;;;;26.48;42.10;99303.09;1702493;82;23282;-45
2022/07/22 09:34:30;;;;;;;2.50;1.82;;;;;;;26.56;41.06;99291.77;1746207;80;21045;-45
2022/07/22 09:37:00;;;;;;;2.65;1.92;;;;;;;26.68;41.06;99290.78;1771389;80;21017;-45
2022/07/22 09:39:35;;;;;;;2.50;1.62;;;;;;;26.82;39.89;99288.70;1772451;80;21560;-45
2022/07/22 09:42:06;;;;;;;3.95;1.50;;;;;;;26.88;39.35;99291.03;1772917;80;21006;-45
2022/07/22 09:44:34;;;;;;;4.28;1.92;;;;;;;26.91;39.29;99291.49;1752259;80;20950;-45
2022/07/22 09:47:06;;;;;;;3.10;1.95;;;;;;;27.02;39.37;99291.72;1772500;80;21597;-45
2022/07/22 09:49:50;;;;;;;2.98;2.10;;;;;;;27.11;40.54;99293.05;1750654;80;20984;-45
2022/07/22 09:52:25;;;;;;;3.30;1.98;;;;;;;27.23;40.96;99296.86;1772930;80;21595;-45
2022/07/22 09:54:54;;;;;;;3.93;2.10;;;;;;;27.35;40.88;99295.86;1772260;80;20986;-45
2022/07/22 09:57:22;;;;;;;2.60;1.90;;;;;;;27.47;41.75;99296.22;1774121;80;21222;-45
2022/07/22 09:59:49;;;;;;;8.50;2.17;;;;;;;27.59;40.30;99296.60;1758397;80;21078;-45
2022/07/22 10:02:24;;;;;;;5.47;2.33;;;;;;;27.59;39.66;99296.60;1770511;80;20990;-45
2022/07/22 10:04:53;;;;;;;3.05;1.92;;;;;;;27.60;40.27;99295.36;1774051;80;21016;-45
2022/07/22 10:07:23;;;;;;;3.20;2.13;;;;;;;27.65;39.75;99293.92;1772045;80;21016;-45
2022/07/22 10:09:51;;;;;;;4.40;2.10;;;;;;;27.77;40.50;99290.13;1774135;80;20989;-45
2022/07/22 10:12:19;;;;;;;3.30;2.45;;;;;;;27.95;39.23;99288.55;1774186;80;20981;-45
2022/07/22 10:14:47;;;;;;;3.83;1.70;;;;;;;28.08;39.30;99297.39;1755850;80;21036;-45
2022/07/22 10:17:16;;;;;;;1.87;1.67;;;;;;;28.16;37.86;99289.47;1716640;82;21100;-45
2022/07/22 10:19:44;;;;;;;2.90;1.75;;;;;;;28.19;38.37;99291.90;1762258;80;21029;-45
2022/07/22 10:22:43;;;;;;;2.70;1.60;;;;;;;28.23;38.44;99285.50;1752693;80;21204;-42
2022/07/22 10:25:11;;;;;;;;;;;;;;;28.35;36.54;99291.42;1776186;80;21041;-42
2022/07/22 10:28:03;;;;;;;3.35;1.30;;;;;;;28.49;35.69;99287.84;1774314;80;20115;-45
2022/07/22 10:30:40;;;;;;;3.22;1.35;;;;;;;28.48;34.46;99289.86;1764810;80;21029;-45
2022/07/22 10:33:12;;;;;;;1.57;1.40;;;;;;;28.58;34.08;99283.55;1773257;80;21013;-45
2022/07/22 10:36:02;;;;;;;4.17;1.37;;;;;;;28.75;34.45;99279.66;1773727;80;21254;-45
2022/07/22 10:38:31;;;;;;;2.47;1.52;;;;;;;28.97;34.08;99295.31;1743521;82;20933;-45
2022/07/22 10:41:02;;;;;;;3.22;1.27;;;;;;;29.16;33.46;99293.02;1743591;82;21566;-45
2022/07/22 10:43:43;;;;;;;2.60;1.27;;;;;;;29.28;33.43;99282.16;1744024;82;21020;-45
2022/07/22 10:46:10;;;;;;;3.75;1.22;;;;;;;29.41;33.28;99282.59;1743816;82;21116;-46
2022/07/22 10:48:44;;;;;;;6.20;1.20;;;;;;;29.56;33.72;99289.49;1743771;82;21894;-45
2022/07/22 10:51:20;;;;;;;2.00;1.32;;;;;;;29.72;32.89;99292.48;1743604;82;20977;-45
2022/07/22 10:53:59;;;;;;;1.50;1.05;;;;;;;30.00;32.46;99287.20;1743522;82;21041;-45
2022/07/22 10:56:33;;;;;;;1.32;1.15;;;;;;;30.31;31.97;99291.27;1743856;82;20938;-45
2022/07/22 10:59:16;;;;;;;1.50;1.40;;;;;;;30.35;31.61;99284.84;1743443;82;21530;-45
2022/07/22 11:01:46;;;;;;;2.35;1.40;;;;;;;30.26;31.38;99296.21;1743613;82;21091;-45
2022/07/22 11:04:21;;;;;;;2.05;1.50;;;;;;;30.26;31.88;99293.41;1743580;82;21028;-45
2022/07/22 11:06:51;;;;;;;2.08;1.40;;;;;;;30.37;32.17;99292.09;1743332;82;20957;-45
2022/07/22 11:09:22;;;;;;;2.00;1.60;;;;;;;30.49;32.13;99282.56;1743460;82;21193;-46
2022/07/22 11:11:53;;;;;;;3.62;1.20;;;;;;;30.56;31.71;99296.86;1743746;82;21088;-45
2022/07/22 11:14:30;;;;;;;4.55;1.30;;;;;;;30.68;32.17;99292.12;1743417;82;21072;-45
2022/07/22 11:17:08;;;;;;;1.32;1.07;;;;;;;30.87;31.63;99288.29;1743786;82;20942;-45
2022/07/22 11:19:38;;;;;;;1.12;1.02;;;;;;;31.02;31.07;99298.09;1743699;82;20969;-45
2022/07/22 11:22:10;;;;;;;2.45;1.10;;;;;;;31.20;30.46;99289.89;1743778;82;21096;-45
2022/07/22 11:24:38;;;;;;;1.75;1.00;;;;;;;31.37;29.45;99289.32;1743686;82;21567;-45
2022/07/22 11:27:13;;;;;;;1.72;1.42;;;;;;;31.50;29.22;99286.84;1743854;82;21108;-45
2022/07/22 11:29:44;;;;;;;1.57;1.10;;;;;;;31.67;29.52;99294.55;1742263;82;21518;-45
2022/07/22 11:32:10;;;;;;;2.25;1.10;;;;;;;31.88;29.49;99300.09;1743461;82;21017;-45
2022/07/22 11:34:42;;;;;;;2.20;1.27;;;;;;;32.02;28.81;99294.89;1743271;82;20973;-45
2022/07/22 11:37:08;;;;;;;1.82;1.10;;;;;;;32.17;28.67;99301.06;1743812;82;21017;-46
2022/07/22 11:39:35;;;;;;;2.37;1.07;;;;;;;32.42;29.29;99301.32;1743337;82;23182;-45
2022/07/22 11:42:05;;;;;;;1.40;1.30;;;;;;;32.57;28.32;99297.63;1756910;80;20965;-46
2022/07/22 11:44:36;;;;;;;1.72;1.40;;;;;;;32.66;28.68;99296.75;1774278;80;21582;-42
2022/07/22 11:47:04;;;;;;;5.60;1.35;;;;;;;32.75;28.13;99298.52;1768284;80;20972;-42
2022/07/22 11:49:33;;;;;;;3.05;1.32;;;;;;;32.78;29.01;99292.63;1779741;80;21530;-42